Terminal Aerodrome Forecast
Issued by NWS Grand Forks, ND

Home | Current Version | Previous Version | Graphics & Text | Print | Product List | Glossary On
Versions: 1 2 3 4 5 6 7 8 9 10 11 12 13 14 15 16 17 18 19
000
FTUS43 KFGF 242219 AAC
TAFGFK
TAF AMD
KGFK 242219Z 2422/2518 16011KT 3SM -SN OVC035
      TEMPO 2422/2424 3/4SM -SN BKN018
     FM250000 17007KT 1SM -SN OVC012
     FM250500 19005KT P6SM OVC015
     FM251000 26006KT P6SM BKN070
     FM251500 27010KT P6SM BKN025=

USA.gov is the U.S. government's official web portal to all federal, state and local government web resources and services.